createdAt,value
2023-05-10T00:00:43.274Z,13.46
2023-05-10T00:01:43.067Z,13.46
2023-05-10T00:02:43.199Z,13.46
2023-05-10T00:03:43.410Z,13.49
2023-05-10T00:04:43.213Z,13.51
2023-05-10T00:05:42.914Z,13.51
2023-05-10T00:06:42.942Z,13.52
2023-05-10T00:07:43.098Z,13.52
2023-05-10T00:08:43.092Z,13.52
2023-05-10T00:09:43.031Z,13.51
2023-05-10T00:10:42.985Z,13.49
2023-05-10T00:11:42.929Z,13.47
2023-05-10T00:12:42.934Z,13.47
2023-05-10T00:13:42.871Z,13.47
2023-05-10T00:14:42.827Z,13.49
2023-05-10T00:15:43.345Z,13.51
2023-05-10T00:16:43.025Z,13.52
2023-05-10T00:17:42.985Z,13.52
2023-05-10T00:18:42.833Z,13.49
2023-05-10T00:19:42.812Z,13.47
2023-05-10T00:20:42.797Z,13.46
2023-05-10T00:21:42.791Z,13.44
2023-05-10T00:22:42.786Z,13.44
2023-05-10T00:23:42.758Z,13.43
2023-05-10T00:24:43.276Z,13.43
2023-05-10T00:25:42.730Z,13.46
2023-05-10T00:26:42.700Z,13.47
2023-05-10T00:27:42.726Z,13.44
2023-05-10T00:28:42.731Z,13.43
2023-05-10T00:29:42.794Z,13.41
2023-05-10T00:30:42.709Z,13.41
2023-05-10T00:31:42.850Z,13.40
2023-05-10T00:32:42.943Z,13.38
2023-05-10T00:33:42.670Z,13.37
2023-05-10T00:34:42.794Z,13.30
2023-05-10T00:35:42.862Z,13.27
2023-05-10T00:36:42.633Z,13.24
2023-05-10T00:37:42.786Z,13.22
2023-05-10T00:38:42.661Z,13.20
2023-05-10T00:39:42.748Z,13.18
2023-05-10T00:40:43.210Z,13.18
2023-05-10T00:41:42.744Z,13.17
2023-05-10T00:42:42.728Z,13.18
2023-05-10T00:43:42.894Z,13.17
2023-05-10T00:44:42.802Z,13.17
2023-05-10T00:45:42.519Z,13.18
2023-05-10T00:46:43.113Z,13.18
2023-05-10T00:47:42.918Z,13.18
2023-05-10T00:48:42.951Z,13.15
2023-05-10T00:49:42.514Z,13.11
2023-05-10T00:50:42.823Z,13.06
2023-05-10T00:51:42.483Z,13.00
2023-05-10T00:52:42.619Z,13.00
2023-05-10T00:53:43.619Z,13.00
2023-05-10T00:54:42.620Z,13.00
2023-05-10T00:55:42.679Z,13.00
2023-05-10T00:56:42.657Z,12.99
2023-05-10T00:57:42.552Z,12.99
2023-05-10T00:58:42.538Z,12.99
2023-05-10T00:59:42.483Z,12.99
2023-05-10T01:00:42.414Z,12.99
2023-05-10T01:01:42.437Z,13.00
2023-05-10T01:02:42.606Z,13.00
2023-05-10T01:03:42.341Z,13.00
2023-05-10T01:04:42.489Z,13.00
2023-05-10T01:05:42.519Z,13.02
2023-05-10T01:06:42.512Z,13.02
2023-05-10T01:07:42.603Z,13.02
2023-05-10T01:08:42.304Z,13.00
2023-05-10T01:09:42.587Z,12.99
2023-05-10T01:10:42.714Z,12.96
2023-05-10T01:11:42.491Z,12.97
2023-05-10T01:12:42.316Z,12.97
2023-05-10T01:13:42.495Z,12.99
2023-05-10T01:14:42.254Z,12.97
2023-05-10T01:15:42.344Z,12.93
2023-05-10T01:16:42.300Z,12.93
2023-05-10T01:17:42.291Z,12.89
2023-05-10T01:18:42.392Z,12.89
2023-05-10T01:19:42.220Z,12.89
2023-05-10T01:20:42.318Z,12.92
2023-05-10T01:21:42.574Z,12.89
2023-05-10T01:22:42.191Z,12.92
2023-05-10T01:23:42.114Z,12.89
2023-05-10T01:24:42.172Z,12.93
2023-05-10T01:25:42.477Z,12.93
2023-05-10T01:26:42.118Z,12.93
2023-05-10T01:27:42.083Z,12.93
2023-05-10T01:28:42.570Z,12.92
2023-05-10T01:29:42.098Z,12.93
2023-05-10T01:30:42.132Z,12.93
2023-05-10T01:31:42.412Z,12.92
2023-05-10T01:32:42.507Z,12.93
2023-05-10T01:33:42.393Z,12.93
2023-05-10T01:34:42.172Z,12.93
2023-05-10T01:35:42.177Z,12.93
2023-05-10T01:36:42.017Z,12.89
2023-05-10T01:37:42.135Z,12.92
2023-05-10T01:38:42.137Z,12.89
2023-05-10T01:39:42.025Z,12.88
2023-05-10T01:40:42.190Z,12.88
2023-05-10T01:41:42.054Z,12.87
2023-05-10T01:42:42.191Z,12.89
2023-05-10T01:43:42.205Z,12.89
2023-05-10T01:44:42.599Z,12.89
2023-05-10T01:45:42.330Z,12.87
2023-05-10T01:46:42.873Z,12.88
2023-05-10T01:47:41.944Z,12.87
2023-05-10T01:48:41.879Z,12.87
2023-05-10T01:49:41.892Z,12.84
2023-05-10T01:50:41.900Z,12.85
2023-05-10T01:51:41.842Z,12.85
2023-05-10T01:52:41.901Z,12.84
2023-05-10T01:53:41.850Z,12.84
2023-05-10T01:54:41.856Z,12.85
2023-05-10T01:55:41.807Z,12.85
2023-05-10T01:56:41.811Z,12.85
2023-05-10T01:57:41.988Z,12.87
2023-05-10T01:58:42.221Z,12.87
2023-05-10T01:59:42.297Z,12.88
2023-05-10T02:00:41.978Z,12.87
2023-05-10T02:01:41.782Z,12.87
2023-05-10T02:02:42.291Z,12.85
2023-05-10T02:03:41.855Z,12.82
2023-05-10T02:04:42.142Z,12.82
2023-05-10T02:05:42.125Z,12.81
2023-05-10T02:06:42.115Z,12.81
2023-05-10T02:07:41.918Z,12.81
2023-05-10T02:08:42.181Z,12.78
2023-05-10T02:09:42.082Z,12.79
2023-05-10T02:10:41.671Z,12.78
2023-05-10T02:11:42.193Z,12.78
2023-05-10T02:12:41.733Z,12.75
2023-05-10T02:13:41.635Z,12.71
2023-05-10T02:14:41.834Z,12.70
2023-05-10T02:15:42.049Z,12.69
2023-05-10T02:16:42.019Z,12.71
2023-05-10T02:17:41.665Z,12.71
2023-05-10T02:18:41.595Z,12.71
2023-05-10T02:19:41.562Z,12.74
2023-05-10T02:20:41.591Z,12.74
2023-05-10T02:21:41.670Z,12.75
2023-05-10T02:22:41.934Z,12.75
2023-05-10T02:23:41.583Z,12.75
2023-05-10T02:24:41.517Z,12.75
2023-05-10T02:25:41.535Z,12.71
2023-05-10T02:26:41.824Z,12.70
2023-05-10T02:27:41.665Z,12.69
2023-05-10T02:28:41.534Z,12.70
2023-05-10T02:29:41.612Z,12.69
2023-05-10T02:30:41.649Z,12.69
2023-05-10T02:31:41.494Z,12.70
2023-05-10T02:32:41.477Z,12.69
2023-05-10T02:33:41.519Z,12.66
2023-05-10T02:34:41.854Z,12.66
2023-05-10T02:35:41.479Z,12.64
2023-05-10T02:36:41.613Z,12.64
2023-05-10T02:37:42.128Z,12.62
2023-05-10T02:38:41.742Z,12.60
2023-05-10T02:39:41.955Z,12.57
2023-05-10T02:40:41.365Z,12.57
2023-05-10T02:41:41.332Z,12.54
2023-05-10T02:42:41.719Z,12.54
2023-05-10T02:43:41.440Z,12.52
2023-05-10T02:44:41.590Z,12.52
2023-05-10T02:45:41.378Z,12.52
2023-05-10T02:46:41.536Z,12.54
2023-05-10T02:47:41.606Z,12.54
2023-05-10T02:48:41.276Z,12.54
2023-05-10T02:49:41.366Z,12.52
2023-05-10T02:50:41.235Z,12.51
2023-05-10T02:51:41.316Z,12.49
2023-05-10T02:52:41.719Z,12.48
2023-05-10T02:53:41.954Z,12.48
2023-05-10T02:54:41.997Z,12.48
2023-05-10T02:55:41.381Z,12.49
2023-05-10T02:56:41.241Z,12.49
2023-05-10T02:57:41.391Z,12.49
2023-05-10T02:58:41.187Z,12.49
2023-05-10T02:59:41.374Z,12.51
2023-05-10T03:00:41.202Z,12.51
2023-05-10T03:01:41.445Z,12.51
2023-05-10T03:02:41.514Z,12.49
2023-05-10T03:03:41.608Z,12.51
2023-05-10T03:04:41.252Z,12.49
2023-05-10T03:05:41.252Z,12.51
2023-05-10T03:06:41.278Z,12.52
2023-05-10T03:07:41.224Z,12.52
2023-05-10T03:08:41.860Z,12.54
2023-05-10T03:09:41.077Z,12.59
2023-05-10T03:10:41.077Z,12.57
2023-05-10T03:11:41.200Z,12.60
2023-05-10T03:12:41.196Z,12.62
2023-05-10T03:13:41.239Z,12.63
2023-05-10T03:14:41.015Z,12.64
2023-05-10T03:15:41.032Z,12.64
2023-05-10T03:16:42.732Z,12.66
2023-05-10T03:17:41.003Z,12.69
2023-05-10T03:18:41.548Z,12.69
2023-05-10T03:19:41.473Z,12.70
2023-05-10T03:20:40.983Z,12.70
2023-05-10T03:21:41.070Z,12.74
2023-05-10T03:22:41.498Z,12.74
2023-05-10T03:23:41.098Z,12.71
2023-05-10T03:24:41.012Z,12.71
2023-05-10T03:25:40.893Z,12.74
2023-05-10T03:26:40.932Z,12.74
2023-05-10T03:27:40.920Z,12.74
2023-05-10T03:28:41.050Z,12.77
2023-05-10T03:29:41.247Z,12.77
2023-05-10T03:30:41.409Z,12.77
2023-05-10T03:31:41.255Z,12.77
2023-05-10T03:32:40.946Z,12.78
2023-05-10T03:33:41.214Z,12.78
2023-05-10T03:34:41.435Z,12.78
2023-05-10T03:35:40.826Z,12.78
2023-05-10T03:36:41.215Z,12.78
2023-05-10T03:37:41.031Z,12.79
2023-05-10T03:38:40.781Z,12.78
2023-05-10T03:39:40.778Z,12.79
2023-05-10T03:40:40.756Z,12.78
2023-05-10T03:41:40.838Z,12.79
2023-05-10T03:42:40.754Z,12.79
2023-05-10T03:43:40.809Z,12.79
2023-05-10T03:44:40.754Z,12.81
2023-05-10T03:45:40.678Z,12.81
2023-05-10T03:46:40.719Z,12.81
2023-05-10T03:47:40.692Z,12.82
2023-05-10T03:48:40.638Z,12.84
2023-05-10T03:49:40.669Z,12.84
2023-05-10T03:50:40.594Z,12.82
2023-05-10T03:51:40.613Z,12.85
2023-05-10T03:52:40.609Z,12.85
2023-05-10T03:53:40.827Z,12.85
2023-05-10T03:54:41.209Z,12.87
2023-05-10T03:55:40.718Z,12.87
2023-05-10T03:56:40.654Z,12.87
2023-05-10T03:57:40.717Z,12.85
2023-05-10T03:58:41.004Z,12.85
2023-05-10T03:59:40.586Z,12.82
2023-05-10T04:00:40.715Z,12.84
2023-05-10T04:01:40.664Z,12.84
2023-05-10T04:02:41.546Z,12.85
2023-05-10T04:03:40.914Z,12.85
2023-05-10T04:04:40.764Z,12.85
2023-05-10T04:05:40.929Z,12.87
2023-05-10T04:06:40.552Z,12.87
2023-05-10T04:07:40.600Z,12.88
2023-05-10T04:08:40.487Z,12.89
2023-05-10T04:09:40.441Z,12.88
2023-05-10T04:10:40.467Z,12.89
2023-05-10T04:11:40.485Z,12.89
2023-05-10T04:12:40.914Z,12.89
2023-05-10T04:13:40.537Z,12.89
2023-05-10T04:14:40.418Z,12.89
2023-05-10T04:15:40.567Z,12.89
2023-05-10T04:16:40.540Z,12.89
2023-05-10T04:17:40.802Z,12.95
2023-05-10T04:18:40.657Z,12.95
2023-05-10T04:19:40.358Z,12.93
2023-05-10T04:20:40.554Z,12.95
2023-05-10T04:21:40.858Z,12.95
2023-05-10T04:22:40.695Z,12.96
2023-05-10T04:23:40.442Z,12.96
2023-05-10T04:24:40.717Z,12.96
2023-05-10T04:25:40.643Z,12.93
2023-05-10T04:26:40.755Z,12.95
2023-05-10T04:27:40.492Z,12.92
2023-05-10T04:28:40.674Z,12.95
2023-05-10T04:29:40.273Z,12.93
2023-05-10T04:30:40.347Z,12.95
2023-05-10T04:31:40.448Z,12.93
2023-05-10T04:32:40.322Z,12.93
2023-05-10T04:33:40.375Z,12.95
2023-05-10T04:34:40.588Z,12.95
2023-05-10T04:35:40.271Z,12.95
2023-05-10T04:36:40.203Z,12.96
2023-05-10T04:37:40.751Z,12.97
2023-05-10T04:38:40.271Z,12.96
2023-05-10T04:39:42.196Z,12.99
2023-05-10T04:40:40.571Z,12.97
2023-05-10T04:41:40.237Z,12.99
2023-05-10T04:42:40.669Z,12.99
2023-05-10T04:43:40.226Z,12.99
2023-05-10T04:44:40.321Z,13.00
2023-05-10T04:45:40.104Z,12.99
2023-05-10T04:46:40.267Z,13.00
2023-05-10T04:47:40.106Z,13.00
2023-05-10T04:48:40.297Z,13.02
2023-05-10T04:49:40.101Z,13.02
2023-05-10T04:50:40.372Z,13.00
2023-05-10T04:51:40.021Z,13.00
2023-05-10T04:52:40.675Z,13.00
2023-05-10T04:53:40.464Z,13.02
2023-05-10T04:54:40.022Z,13.03
2023-05-10T04:55:40.519Z,13.03
2023-05-10T04:56:40.316Z,13.03
2023-05-10T04:57:40.330Z,13.04
2023-05-10T04:58:39.962Z,13.04
2023-05-10T04:59:39.999Z,13.07
2023-05-10T05:00:40.043Z,13.07
2023-05-10T05:01:40.083Z,13.07
2023-05-10T05:02:40.359Z,13.07
2023-05-10T05:03:40.398Z,13.06
2023-05-10T05:04:40.562Z,13.07
2023-05-10T05:05:39.943Z,13.09
2023-05-10T05:06:40.208Z,13.07
2023-05-10T05:07:39.855Z,13.09
2023-05-10T05:08:39.835Z,13.07
2023-05-10T05:09:40.139Z,13.12
2023-05-10T05:10:40.008Z,13.12
2023-05-10T05:11:40.016Z,13.14
2023-05-10T05:12:40.237Z,13.14
2023-05-10T05:13:39.823Z,13.15
2023-05-10T05:14:39.839Z,13.15
2023-05-10T05:15:39.827Z,13.14
2023-05-10T05:16:39.963Z,13.15
2023-05-10T05:17:39.835Z,13.18
2023-05-10T05:18:39.768Z,13.17
2023-05-10T05:19:39.869Z,13.18
2023-05-10T05:20:40.061Z,13.20
2023-05-10T05:21:39.865Z,13.18
2023-05-10T05:22:39.909Z,13.17
2023-05-10T05:23:39.861Z,13.20
2023-05-10T05:24:39.663Z,13.21
2023-05-10T05:25:39.660Z,13.22
2023-05-10T05:26:39.646Z,13.24
2023-05-10T05:27:39.831Z,13.25
2023-05-10T05:28:39.662Z,13.27
2023-05-10T05:29:39.792Z,13.25
2023-05-10T05:30:39.629Z,13.27
2023-05-10T05:31:39.632Z,13.29
2023-05-10T05:32:39.644Z,13.29
2023-05-10T05:33:39.596Z,13.32
2023-05-10T05:34:39.840Z,13.32
2023-05-10T05:35:39.846Z,13.36
2023-05-10T05:36:39.603Z,13.38
2023-05-10T05:37:39.533Z,13.40
2023-05-10T05:38:39.522Z,13.43
2023-05-10T05:39:39.516Z,13.43
2023-05-10T05:40:39.615Z,13.44
2023-05-10T05:41:39.569Z,13.44
2023-05-10T05:42:39.515Z,13.44
2023-05-10T05:43:39.604Z,13.38
2023-05-10T05:44:39.483Z,13.36
2023-05-10T05:45:39.475Z,13.30
2023-05-10T05:46:39.503Z,13.33
2023-05-10T05:47:39.886Z,13.37
2023-05-10T05:48:39.428Z,13.40
2023-05-10T05:49:39.452Z,13.38
2023-05-10T05:50:39.632Z,13.38
2023-05-10T05:51:39.418Z,13.37
2023-05-10T05:52:39.444Z,13.33
2023-05-10T05:53:39.447Z,13.36
2023-05-10T05:54:39.421Z,13.36
2023-05-10T05:55:39.373Z,13.36
2023-05-10T05:56:39.389Z,13.38
2023-05-10T05:57:39.508Z,13.40
2023-05-10T05:58:39.425Z,13.41
2023-05-10T05:59:39.415Z,13.41
2023-05-10T06:00:39.539Z,13.44
2023-05-10T06:01:39.443Z,13.46
2023-05-10T06:02:39.605Z,13.46
2023-05-10T06:03:39.626Z,13.49
2023-05-10T06:04:39.423Z,13.46
2023-05-10T06:05:39.421Z,13.44
2023-05-10T06:06:39.388Z,13.46
2023-05-10T06:07:39.249Z,13.41
2023-05-10T06:08:39.300Z,13.44
2023-05-10T06:09:39.254Z,13.47
2023-05-10T06:10:39.361Z,13.49
2023-05-10T06:11:39.352Z,13.51
2023-05-10T06:12:39.639Z,13.49
2023-05-10T06:13:39.333Z,13.47
2023-05-10T06:14:39.198Z,13.49
2023-05-10T06:15:39.316Z,13.52
2023-05-10T06:16:39.270Z,13.52
2023-05-10T06:17:39.387Z,13.54
2023-05-10T06:18:39.775Z,13.56
2023-05-10T06:19:39.728Z,13.54
2023-05-10T06:20:39.419Z,13.52
2023-05-10T06:21:39.444Z,13.55
2023-05-10T06:22:39.154Z,13.59
2023-05-10T06:23:39.517Z,13.62
2023-05-10T06:24:39.447Z,13.63
2023-05-10T06:25:39.541Z,13.55
2023-05-10T06:26:39.504Z,13.52
2023-05-10T06:27:39.087Z,13.55
2023-05-10T06:28:39.335Z,13.54
2023-05-10T06:29:39.122Z,13.55
2023-05-10T06:30:39.335Z,13.58
2023-05-10T06:31:39.597Z,13.58
2023-05-10T06:32:39.063Z,13.61
2023-05-10T06:33:39.072Z,13.65
2023-05-10T06:34:39.073Z,13.70
2023-05-10T06:35:39.066Z,13.73
2023-05-10T06:36:39.146Z,13.73
2023-05-10T06:37:39.146Z,13.76
2023-05-10T06:38:39.096Z,13.77
2023-05-10T06:39:39.114Z,13.80
2023-05-10T06:40:38.977Z,13.77
2023-05-10T06:41:39.139Z,13.77
2023-05-10T06:42:38.958Z,13.77
2023-05-10T06:43:38.890Z,13.76
2023-05-10T06:44:38.918Z,13.74
2023-05-10T06:45:38.891Z,13.70
2023-05-10T06:46:38.926Z,13.73
2023-05-10T06:47:39.609Z,13.74
2023-05-10T06:48:39.070Z,13.76
2023-05-10T06:49:39.140Z,13.80
2023-05-10T06:50:38.823Z,13.88
2023-05-10T06:51:38.974Z,13.96
2023-05-10T06:52:39.087Z,14.06
2023-05-10T06:53:38.924Z,14.17
2023-05-10T06:54:39.062Z,14.17
2023-05-10T06:55:38.995Z,14.06
2023-05-10T06:56:38.776Z,14.06
2023-05-10T06:57:39.019Z,14.13
2023-05-10T06:58:39.144Z,14.14
2023-05-10T06:59:39.254Z,14.20
2023-05-10T07:00:38.769Z,14.25
2023-05-10T07:01:38.741Z,14.31
2023-05-10T07:02:39.056Z,14.29
2023-05-10T07:03:38.776Z,14.25
2023-05-10T07:04:38.854Z,14.28
2023-05-10T07:05:39.035Z,14.31
2023-05-10T07:06:38.885Z,14.21
2023-05-10T07:07:38.849Z,14.21
2023-05-10T07:08:38.783Z,14.17
2023-05-10T07:09:38.921Z,14.17
2023-05-10T07:10:39.429Z,14.24
2023-05-10T07:11:38.665Z,14.27
2023-05-10T07:12:38.691Z,14.29
2023-05-10T07:13:38.942Z,14.35
2023-05-10T07:14:38.563Z,14.39
2023-05-10T07:15:38.792Z,14.49
2023-05-10T07:16:39.322Z,14.52
2023-05-10T07:17:38.746Z,14.49
2023-05-10T07:18:38.830Z,14.52
2023-05-10T07:19:38.583Z,14.54
2023-05-10T07:20:38.528Z,14.56
2023-05-10T07:21:38.661Z,14.61
2023-05-10T07:22:38.945Z,14.65
2023-05-10T07:23:38.470Z,14.71
2023-05-10T07:24:39.001Z,14.75
2023-05-10T07:25:38.503Z,14.72
2023-05-10T07:26:38.469Z,14.71
2023-05-10T07:27:38.440Z,14.69
2023-05-10T07:28:38.477Z,14.75
2023-05-10T07:29:38.543Z,14.81
2023-05-10T07:30:38.520Z,14.90
2023-05-10T07:31:38.442Z,14.93
2023-05-10T07:32:38.626Z,14.91
2023-05-10T07:33:38.394Z,14.84
2023-05-10T07:34:38.508Z,14.87
2023-05-10T07:35:38.332Z,14.86
2023-05-10T07:36:38.428Z,14.81
2023-05-10T07:37:38.463Z,14.86
2023-05-10T07:38:40.848Z,14.88
2023-05-10T07:39:38.348Z,14.94
2023-05-10T07:40:38.378Z,14.95
2023-05-10T07:41:38.543Z,14.98
2023-05-10T07:42:38.312Z,15.01
2023-05-10T07:43:38.373Z,14.94
2023-05-10T07:44:38.396Z,14.78
2023-05-10T07:45:38.259Z,14.80
2023-05-10T07:46:38.298Z,14.83
2023-05-10T07:47:38.263Z,14.84
2023-05-10T07:48:38.400Z,14.87
2023-05-10T07:49:38.654Z,14.87
2023-05-10T07:50:38.251Z,14.78
2023-05-10T07:51:38.213Z,14.78
2023-05-10T07:52:38.221Z,14.81
2023-05-10T07:53:38.195Z,14.83
2023-05-10T07:54:38.270Z,14.72
2023-05-10T07:55:38.577Z,14.69
2023-05-10T07:56:38.324Z,14.74
2023-05-10T07:57:38.128Z,14.80
2023-05-10T07:58:38.319Z,14.78
2023-05-10T07:59:38.151Z,14.84
2023-05-10T08:00:38.165Z,14.88
2023-05-10T08:01:38.104Z,14.90
2023-05-10T08:02:38.155Z,14.95
2023-05-10T08:03:38.351Z,14.95
2023-05-10T08:04:38.238Z,14.95
2023-05-10T08:05:38.252Z,15.02
2023-05-10T08:06:38.070Z,15.01
2023-05-10T08:07:38.018Z,15.03
2023-05-10T08:08:38.441Z,15.11
2023-05-10T08:09:38.028Z,15.15
2023-05-10T08:10:38.340Z,15.09
2023-05-10T08:11:38.112Z,15.17
2023-05-10T08:12:38.212Z,15.28
2023-05-10T08:13:37.978Z,15.42
2023-05-10T08:14:37.957Z,15.42
2023-05-10T08:15:38.081Z,15.38
2023-05-10T08:16:38.435Z,15.39
2023-05-10T08:17:38.295Z,15.35
2023-05-10T08:18:38.002Z,15.31
2023-05-10T08:19:37.892Z,15.30
2023-05-10T08:20:37.889Z,15.21
2023-05-10T08:21:37.940Z,15.19
2023-05-10T08:22:37.973Z,15.19
2023-05-10T08:23:38.335Z,15.13
2023-05-10T08:24:38.367Z,15.09
2023-05-10T08:25:37.891Z,15.08
2023-05-10T08:26:37.891Z,15.15
2023-05-10T08:27:38.158Z,15.20
2023-05-10T08:28:37.863Z,15.15
2023-05-10T08:29:48.928Z,15.08
2023-05-10T08:30:37.791Z,15.12
2023-05-10T08:31:37.821Z,15.08
2023-05-10T08:32:37.916Z,15.05
2023-05-10T08:33:37.892Z,15.17
2023-05-10T08:34:37.851Z,15.23
2023-05-10T08:35:37.745Z,15.23
2023-05-10T08:36:37.750Z,15.28
2023-05-10T08:37:37.774Z,15.24
2023-05-10T08:38:37.766Z,15.33
2023-05-10T08:39:37.716Z,15.42
2023-05-10T08:40:37.780Z,15.52
2023-05-10T08:41:37.677Z,15.43
2023-05-10T08:42:37.680Z,15.42
2023-05-10T08:43:37.730Z,15.49
2023-05-10T08:44:37.885Z,15.49
2023-05-10T08:45:37.999Z,15.51
2023-05-10T08:46:37.798Z,15.45
2023-05-10T08:47:37.687Z,15.51
2023-05-10T08:48:37.848Z,15.75
2023-05-10T08:49:37.722Z,16.11
2023-05-10T08:50:37.616Z,16.58
2023-05-10T08:51:37.714Z,16.88
2023-05-10T08:52:37.649Z,17.00
2023-05-10T08:53:37.555Z,17.13
2023-05-10T08:54:37.569Z,17.44
2023-05-10T08:55:37.578Z,17.78
2023-05-10T08:56:37.525Z,18.06
2023-05-10T08:57:37.520Z,18.52
2023-05-10T08:58:37.552Z,18.64
2023-05-10T08:59:37.522Z,18.54
2023-05-10T09:00:37.529Z,18.95
2023-05-10T09:01:37.489Z,18.76
2023-05-10T09:02:37.639Z,18.52
2023-05-10T09:03:37.505Z,18.24
2023-05-10T09:04:38.014Z,18.00
2023-05-10T09:05:37.471Z,17.74
2023-05-10T09:06:37.745Z,17.81
2023-05-10T09:07:37.447Z,17.66
2023-05-10T09:08:37.438Z,17.47
2023-05-10T09:09:37.475Z,17.53
2023-05-10T09:10:37.552Z,17.53
2023-05-10T09:11:37.534Z,17.73
2023-05-10T09:12:37.359Z,17.87
2023-05-10T09:13:37.343Z,17.79
2023-05-10T09:14:37.612Z,17.81
2023-05-10T09:15:37.433Z,17.76
2023-05-10T09:16:37.458Z,17.70
2023-05-10T09:17:37.525Z,17.69
2023-05-10T09:18:37.382Z,17.47
2023-05-10T09:19:37.298Z,17.50
2023-05-10T09:20:37.311Z,17.41
2023-05-10T09:21:37.299Z,17.33
2023-05-10T09:22:37.486Z,17.23
2023-05-10T09:23:37.436Z,16.99
2023-05-10T09:24:37.439Z,16.92
2023-05-10T09:25:37.270Z,16.75
2023-05-10T09:26:37.251Z,16.65
2023-05-10T09:27:37.289Z,16.68
2023-05-10T09:28:37.239Z,16.71
2023-05-10T09:29:37.210Z,16.62
2023-05-10T09:30:37.328Z,16.56
2023-05-10T09:31:37.211Z,16.45
2023-05-10T09:32:37.218Z,16.42
2023-05-10T09:33:37.345Z,16.37
2023-05-10T09:34:37.549Z,16.30
2023-05-10T09:35:37.346Z,16.09
2023-05-10T09:36:37.304Z,16.04
2023-05-10T09:37:37.271Z,16.11
2023-05-10T09:38:37.456Z,16.16
2023-05-10T09:39:37.119Z,16.14
2023-05-10T09:40:37.693Z,16.22
2023-05-10T09:41:37.311Z,16.26
2023-05-10T09:42:37.271Z,16.30
2023-05-10T09:43:37.141Z,16.50
2023-05-10T09:44:37.123Z,16.50
2023-05-10T09:45:38.867Z,16.70
2023-05-10T09:46:37.208Z,16.86
2023-05-10T09:47:37.247Z,16.95
2023-05-10T09:48:37.208Z,16.83
2023-05-10T09:49:37.174Z,16.81
2023-05-10T09:50:37.074Z,16.85
2023-05-10T09:51:37.153Z,16.95
2023-05-10T09:52:36.995Z,17.35
2023-05-10T09:53:37.052Z,17.46
2023-05-10T09:54:37.207Z,17.43
2023-05-10T09:55:37.171Z,17.44
2023-05-10T09:56:36.968Z,17.41
2023-05-10T09:57:37.017Z,17.18
2023-05-10T09:58:37.084Z,17.15
2023-05-10T09:59:37.357Z,17.11
2023-05-10T10:00:37.027Z,16.99
2023-05-10T10:01:37.261Z,16.98
2023-05-10T10:02:37.264Z,16.90
2023-05-10T10:03:37.196Z,16.95
2023-05-10T10:04:37.301Z,16.95
2023-05-10T10:05:37.231Z,16.85
2023-05-10T10:06:37.240Z,16.90
2023-05-10T10:07:36.939Z,16.86
2023-05-10T10:08:36.870Z,16.81
2023-05-10T10:09:36.823Z,16.73
2023-05-10T10:10:36.915Z,16.60
2023-05-10T10:11:37.291Z,16.55
2023-05-10T10:12:37.229Z,16.58
2023-05-10T10:13:37.115Z,16.59
2023-05-10T10:14:37.113Z,16.53
2023-05-10T10:15:36.879Z,16.42
2023-05-10T10:16:37.597Z,16.49
2023-05-10T10:17:36.849Z,16.52
2023-05-10T10:18:36.753Z,16.56
2023-05-10T10:19:37.493Z,16.50
2023-05-10T10:20:36.769Z,16.45
2023-05-10T10:21:36.872Z,16.35
2023-05-10T10:22:37.124Z,16.23
2023-05-10T10:23:36.985Z,16.18
2023-05-10T10:24:37.237Z,16.18
2023-05-10T10:25:37.019Z,16.14
2023-05-10T10:26:36.843Z,16.07
2023-05-10T10:27:36.619Z,16.04
2023-05-10T10:28:37.231Z,16.06
2023-05-10T10:29:36.864Z,16.01
2023-05-10T10:30:36.631Z,16.01
2023-05-10T10:31:37.008Z,15.85
2023-05-10T10:32:36.605Z,15.79
2023-05-10T10:33:36.792Z,15.56
2023-05-10T10:34:36.592Z,15.39
2023-05-10T10:35:36.502Z,15.30
2023-05-10T10:36:36.709Z,15.27
2023-05-10T10:37:36.522Z,15.27
2023-05-10T10:38:36.624Z,15.23
2023-05-10T10:39:36.473Z,15.24
2023-05-10T10:40:36.501Z,15.23
2023-05-10T10:41:36.488Z,15.13
2023-05-10T10:42:36.547Z,15.08
2023-05-10T10:43:36.550Z,15.08
2023-05-10T10:44:36.541Z,15.05
2023-05-10T10:45:36.477Z,15.03
2023-05-10T10:46:37.164Z,15.01
2023-05-10T10:47:36.515Z,15.02
2023-05-10T10:48:36.630Z,15.01
2023-05-10T10:49:36.396Z,15.02
2023-05-10T10:50:36.588Z,15.08
2023-05-10T10:51:36.437Z,15.05
2023-05-10T10:52:36.389Z,15.03
2023-05-10T10:53:36.457Z,15.03
2023-05-10T10:54:36.733Z,15.01
2023-05-10T10:55:36.640Z,15.05
2023-05-10T10:56:37.145Z,15.08
2023-05-10T10:57:36.429Z,15.06
2023-05-10T10:58:36.985Z,15.08
2023-05-10T10:59:36.754Z,15.11
2023-05-10T11:00:36.402Z,15.09
2023-05-10T11:01:36.984Z,15.02
2023-05-10T11:02:36.470Z,14.94
2023-05-10T11:03:36.295Z,14.90
2023-05-10T11:04:36.401Z,14.88
2023-05-10T11:05:36.208Z,14.90
2023-05-10T11:06:36.568Z,14.93
2023-05-10T11:07:36.268Z,14.98
2023-05-10T11:08:38.201Z,15.05
2023-05-10T11:09:36.519Z,15.08
2023-05-10T11:10:36.428Z,15.13
2023-05-10T11:11:36.663Z,15.19
2023-05-10T11:12:36.387Z,15.24
2023-05-10T11:13:36.269Z,15.27
2023-05-10T11:14:36.167Z,15.28
2023-05-10T11:15:36.144Z,15.31
2023-05-10T11:16:36.261Z,15.36
2023-05-10T11:17:36.546Z,15.31
2023-05-10T11:18:36.561Z,15.30
2023-05-10T11:19:36.502Z,15.31
2023-05-10T11:20:36.243Z,15.35
2023-05-10T11:21:36.298Z,15.31
2023-05-10T11:22:36.333Z,15.26
2023-05-10T11:23:36.247Z,15.21
2023-05-10T11:24:36.357Z,15.21
2023-05-10T11:25:36.140Z,15.20
2023-05-10T11:26:36.301Z,15.19
2023-05-10T11:27:36.158Z,15.15
2023-05-10T11:28:36.258Z,15.20
2023-05-10T11:29:36.064Z,15.26
2023-05-10T11:30:36.008Z,15.33
2023-05-10T11:31:36.117Z,15.41
2023-05-10T11:32:36.178Z,15.46
2023-05-10T11:33:36.303Z,15.56
2023-05-10T11:34:36.168Z,15.61
2023-05-10T11:35:36.205Z,15.63
2023-05-10T11:36:35.923Z,15.67
2023-05-10T11:37:36.020Z,15.68
2023-05-10T11:38:35.918Z,15.74
2023-05-10T11:39:35.898Z,15.79
2023-05-10T11:40:36.221Z,15.88
2023-05-10T11:41:35.896Z,15.99
2023-05-10T11:42:36.548Z,16.12
2023-05-10T11:43:36.290Z,16.31
2023-05-10T11:44:36.689Z,16.42
2023-05-10T11:45:35.838Z,16.53
2023-05-10T11:46:35.988Z,16.59
2023-05-10T11:47:35.858Z,16.67
2023-05-10T11:48:35.808Z,16.73
2023-05-10T11:49:36.212Z,16.74
2023-05-10T11:50:35.796Z,16.74
2023-05-10T11:51:35.746Z,16.80
2023-05-10T11:52:35.784Z,16.88
2023-05-10T11:53:35.775Z,16.95
2023-05-10T11:54:35.823Z,17.06
2023-05-10T11:55:35.752Z,17.20
2023-05-10T11:56:35.844Z,17.32
2023-05-10T11:57:35.736Z,17.35
2023-05-10T11:58:35.719Z,17.46
2023-05-10T11:59:35.893Z,17.53
2023-05-10T12:00:35.888Z,17.62
2023-05-10T12:01:35.687Z,17.62
2023-05-10T12:02:35.865Z,17.54
2023-05-10T12:03:35.863Z,17.48
2023-05-10T12:04:36.220Z,17.38
2023-05-10T12:05:35.938Z,17.23
2023-05-10T12:06:36.167Z,17.23
2023-05-10T12:07:35.906Z,17.22
2023-05-10T12:08:35.798Z,17.17
2023-05-10T12:09:43.848Z,17.08
2023-05-10T12:10:35.776Z,17.07
2023-05-10T12:11:35.996Z,16.98
2023-05-10T12:12:35.624Z,17.00
2023-05-10T12:13:35.558Z,16.93
2023-05-10T12:14:35.517Z,16.93
2023-05-10T12:15:35.912Z,17.03
2023-05-10T12:16:35.831Z,17.11
2023-05-10T12:17:35.579Z,17.20
2023-05-10T12:18:35.563Z,17.26
2023-05-10T12:19:35.944Z,17.32
2023-05-10T12:20:35.788Z,17.38
2023-05-10T12:21:35.477Z,17.35
2023-05-10T12:22:35.573Z,17.38
2023-05-10T12:23:35.473Z,17.32
2023-05-10T12:24:35.471Z,17.22
2023-05-10T12:25:35.665Z,17.26
2023-05-10T12:26:35.608Z,17.22
2023-05-10T12:27:35.439Z,17.30
2023-05-10T12:28:35.665Z,17.33
2023-05-10T12:29:35.826Z,17.38
2023-05-10T12:30:35.510Z,17.44
2023-05-10T12:31:35.381Z,17.36
2023-05-10T12:32:35.405Z,17.35
2023-05-10T12:33:35.532Z,17.32
2023-05-10T12:34:35.744Z,17.33
2023-05-10T12:35:35.360Z,17.33
2023-05-10T12:36:35.759Z,17.33
2023-05-10T12:37:35.335Z,17.35
2023-05-10T12:38:35.321Z,17.28
2023-05-10T12:39:35.477Z,17.13
2023-05-10T12:40:35.446Z,17.06
2023-05-10T12:41:35.443Z,17.04
2023-05-10T12:42:35.238Z,17.07
2023-05-10T12:43:35.242Z,17.04
2023-05-10T12:44:35.225Z,17.04
2023-05-10T12:45:35.511Z,17.06
2023-05-10T12:46:35.707Z,17.06
2023-05-10T12:47:35.504Z,17.11
2023-05-10T12:48:35.331Z,17.08
2023-05-10T12:49:35.418Z,17.00
2023-05-10T12:50:35.621Z,17.13
2023-05-10T12:51:35.250Z,17.28
2023-05-10T12:52:35.204Z,17.38